Time;durP1;ratioP1;P1;durP2;ratioP2;P2;SDS_P1;SDS_P2;PMS_P1;PMS_P2;Temp;Humidity;BMP_temperature;BMP_pressure;BME280_temperature;BME280_humidity;BME280_pressure;Samples;Min_cycle;Max_cycle;Signal;HPM_P1;HPM_P2
2022/10/05 00:00:52;;;;;;;9.35;7.43;;;10.40;99.90;;;;;;5011697;28;20026;-49
2022/10/05 00:03:19;;;;;;;8.77;7.18;;;10.40;99.90;;;;;;5011230;28;20104;-47
2022/10/05 00:05:45;;;;;;;8.80;7.00;;;10.40;99.90;;;;;;5011629;28;20026;-45
2022/10/05 00:08:18;;;;;;;8.15;5.97;;;10.40;99.90;;;;;;5011580;28;20068;-44
2022/10/05 00:10:45;;;;;;;110.72;64.13;;;10.40;99.90;;;;;;5011889;28;20109;-46
2022/10/05 00:13:19;;;;;;;30.05;19.15;;;10.40;99.90;;;;;;5011178;28;20038;-51
2022/10/05 00:15:45;;;;;;;19.30;11.75;;;10.40;99.90;;;;;;5010049;28;20448;-45
2022/10/05 00:18:16;;;;;;;10.65;8.25;;;10.30;99.90;;;;;;5011547;28;20058;-45
2022/10/05 00:20:42;;;;;;;8.25;6.30;;;10.30;99.90;;;;;;5011631;28;20026;-44
2022/10/05 00:23:17;;;;;;;9.35;7.30;;;10.20;99.90;;;;;;5011478;28;20022;-46
2022/10/05 00:25:43;;;;;;;15.88;6.20;;;10.20;99.90;;;;;;5011137;28;20026;-42
2022/10/05 00:28:21;;;;;;;11.40;6.32;;;10.20;99.90;;;;;;5011389;28;20599;-45
2022/10/05 00:30:47;;;;;;;8.30;6.45;;;10.20;99.90;;;;;;5011732;28;20116;-43
2022/10/05 00:33:12;;;;;;;9.77;6.85;;;10.10;99.90;;;;;;5011126;28;20127;-42
2022/10/05 00:35:38;;;;;;;9.70;8.50;;;10.10;99.90;;;;;;5009966;28;20018;-49
2022/10/05 00:38:04;;;;;;;10.65;8.45;;;10.10;99.90;;;;;;5011195;28;20014;-47
2022/10/05 00:40:49;;;;;;;11.23;7.70;;;10.20;99.90;;;;;;5011339;28;20033;-47
2022/10/05 00:43:36;;;;;;;10.35;7.07;;;10.20;99.90;;;;;;5011279;28;20403;-46
2022/10/05 00:46:19;;;;;;;8.82;5.82;;;10.20;99.90;;;;;;5011107;28;20052;-47
2022/10/05 00:48:53;;;;;;;9.80;6.72;;;10.00;99.90;;;;;;5011271;28;20030;-42
2022/10/05 00:51:27;;;;;;;8.43;6.60;;;10.00;99.90;;;;;;5011080;28;20441;-51
2022/10/05 00:54:11;;;;;;;6.67;6.07;;;9.90;99.90;;;;;;5011119;28;20101;-45
2022/10/05 00:57:01;;;;;;;9.52;6.32;;;9.80;99.90;;;;;;5011264;28;20029;-50
2022/10/05 00:59:32;;;;;;;8.77;6.82;;;9.80;99.90;;;;;;5011214;28;20026;-49
2022/10/05 01:02:28;;;;;;;11.73;8.38;;;9.90;99.90;;;;;;5011070;28;20022;-43
2022/10/05 01:05:11;;;;;;;8.82;7.88;;;9.90;99.90;;;;;;5010593;28;20022;-46
2022/10/05 01:08:01;;;;;;;10.95;7.20;;;10.00;99.90;;;;;;5013238;28;20097;-45
2022/10/05 01:10:48;;;;;;;9.13;5.82;;;9.90;99.90;;;;;;5014646;28;20498;-47
2022/10/05 01:13:31;;;;;;;8.80;6.10;;;9.90;99.90;;;;;;5013960;28;20117;-47
2022/10/05 01:16:14;;;;;;;7.93;5.68;;;9.80;99.90;;;;;;5014614;28;20069;-43
2022/10/05 01:18:47;;;;;;;10.65;6.47;;;9.80;99.90;;;;;;5014535;28;20033;-43
2022/10/05 01:21:24;;;;;;;7.50;6.00;;;9.70;99.90;;;;;;5014533;28;20026;-43
2022/10/05 01:24:51;;;;;;;13.98;7.25;;;9.70;99.90;;;;;;5014174;28;20034;-44
2022/10/05 01:27:51;;;;;;;12.02;7.72;;;9.60;99.90;;;;;;4920434;28;20447;-44
2022/10/05 01:30:21;;;;;;;11.02;7.55;;;9.60;99.90;;;;;;5014303;28;20394;-45
2022/10/05 01:33:10;;;;;;;8.80;7.22;;;9.50;99.90;;;;;;5014200;28;20033;-41
2022/10/05 01:36:01;;;;;;;12.32;7.75;;;9.50;99.90;;;;;;5014230;28;20018;-46
2022/10/05 01:38:33;;;;;;;10.00;6.95;;;9.50;99.90;;;;;;5014212;28;20026;-47
2022/10/05 01:41:15;;;;;;;11.50;6.78;;;9.50;99.90;;;;;;5013765;28;20556;-49
2022/10/05 01:43:46;;;;;;;10.48;6.35;;;9.50;99.90;;;;;;5013932;28;20037;-46
2022/10/05 01:46:24;;;;;;;9.63;6.97;;;9.50;99.90;;;;;;5013924;28;20432;-44
2022/10/05 01:49:27;;;;;;;11.52;6.88;;;9.50;99.90;;;;;;5014075;28;20046;-50
2022/10/05 01:52:07;;;;;;;11.43;7.70;;;9.50;99.90;;;;;;5013837;28;20022;-42
2022/10/05 01:55:00;;;;;;;9.52;6.25;;;9.50;99.90;;;;;;5013334;28;20040;-44
2022/10/05 01:57:40;;;;;;;13.43;6.45;;;9.50;99.90;;;;;;5014345;28;20112;-48
2022/10/05 02:00:08;;;;;;;9.93;6.90;;;9.50;99.90;;;;;;5013647;28;20065;-49
2022/10/05 02:02:58;;;;;;;10.38;7.15;;;9.50;99.90;;;;;;5013417;28;20167;-47
2022/10/05 02:05:30;;;;;;;13.98;8.32;;;9.60;99.90;;;;;;5013310;28;20104;-47
2022/10/05 02:08:07;;;;;;;17.92;10.20;;;9.50;99.90;;;;;;5013717;28;20034;-47
2022/10/05 02:10:40;;;;;;;14.15;10.65;;;9.70;99.90;;;;;;5013615;28;20034;-50
2022/10/05 02:13:17;;;;;;;17.10;11.45;;;9.70;99.90;;;;;;5013174;28;20045;-44
2022/10/05 02:15:59;;;;;;;9.95;8.90;;;9.80;99.90;;;;;;5013243;28;20022;-49
2022/10/05 02:18:40;;;;;;;12.50;9.75;;;9.70;99.90;;;;;;5012481;28;20153;-45
2022/10/05 02:21:07;;;;;;;11.15;7.78;;;9.70;99.90;;;;;;5013275;28;20426;-45
2022/10/05 02:23:37;;;;;;;8.95;6.72;;;9.70;99.90;;;;;;5011742;28;20502;-44
2022/10/05 02:26:05;;;;;;;14.00;8.68;;;9.60;99.90;;;;;;5013467;28;20172;-45
2022/10/05 02:28:37;;;;;;;12.32;8.27;;;9.60;99.90;;;;;;5012637;28;20430;-45
2022/10/05 02:31:09;;;;;;;12.52;9.00;;;9.50;99.90;;;;;;5024335;23;20052;-46
2022/10/05 02:33:35;;;;;;;9.85;7.88;;;9.40;99.90;;;;;;5012471;28;20037;-45
2022/10/05 02:36:15;;;;;;;14.30;8.98;;;9.40;99.90;;;;;;5013275;28;20054;-44
2022/10/05 02:39:29;;;;;;;13.30;9.05;;;9.30;99.90;;;;;;5013340;28;20107;-45
2022/10/05 02:42:19;;;;;;;10.43;7.85;;;9.30;99.90;;;;;;4952319;29;20074;-44
2022/10/05 02:45:00;;;;;;;15.50;9.60;;;9.30;99.90;;;;;;4952719;29;20070;-43
2022/10/05 02:47:54;;;;;;;22.02;10.65;;;9.40;99.90;;;;;;4996908;28;20045;-45
2022/10/05 02:50:26;;;;;;;21.45;13.55;;;9.40;99.90;;;;;;4987013;28;20038;-46
2022/10/05 02:53:21;;;;;;;19.25;11.65;;;9.50;99.90;;;;;;5012547;28;20022;-48
2022/10/05 02:56:12;;;;;;;23.52;13.75;;;9.60;99.90;;;;;;5013099;28;20029;-49
2022/10/05 02:58:58;;;;;;;18.40;14.00;;;9.50;99.90;;;;;;5013563;28;20034;-49
2022/10/05 03:01:26;;;;;;;;;;;9.50;99.90;;;;;;5013470;28;20022;-47
2022/10/05 03:04:08;;;;;;;17.23;12.43;;;9.40;99.90;;;;;;5012496;28;19940;-45
2022/10/05 03:06:40;;;;;;;19.35;13.13;;;9.40;99.90;;;;;;5011773;28;20044;-43
2022/10/05 03:09:08;;;;;;;23.13;13.65;;;9.50;99.90;;;;;;5012667;28;20022;-45
2022/10/05 03:12:02;;;;;;;19.35;13.50;;;9.40;99.90;;;;;;5012605;28;20041;-50
2022/10/05 03:14:55;;;;;;;21.17;14.40;;;9.50;99.90;;;;;;5011421;28;20022;-46
2022/10/05 03:17:39;;;;;;;20.05;12.90;;;9.40;99.90;;;;;;5012647;28;20075;-43
2022/10/05 03:20:36;;;;;;;16.25;12.30;;;9.50;99.90;;;;;;5012834;28;20022;-44
2022/10/05 03:23:05;;;;;;;15.32;11.98;;;9.40;99.90;;;;;;5012404;28;20033;-47
2022/10/05 03:26:01;;;;;;;19.90;11.68;;;9.30;99.90;;;;;;5012406;28;20029;-46
2022/10/05 03:28:38;;;;;;;;;;;9.30;99.90;;;;;;5011504;28;20049;-43
2022/10/05 03:31:08;;;;;;;29.50;13.13;;;9.30;99.90;;;;;;5012044;28;20351;-44
2022/10/05 03:33:46;;;;;;;20.40;13.85;;;9.30;99.90;;;;;;5011964;28;20034;-44
2022/10/05 03:36:26;;;;;;;17.05;12.73;;;9.40;99.90;;;;;;5013146;28;20489;-44
2022/10/05 03:39:16;;;;;;;20.10;12.45;;;9.30;99.90;;;;;;5013193;28;20084;-44
2022/10/05 03:42:08;;;;;;;19.50;12.02;;;9.20;99.90;;;;;;5012941;28;20084;-46
2022/10/05 03:45:18;;;;;;;25.38;11.57;;;9.20;99.90;;;;;;5013082;28;20034;-44
2022/10/05 03:48:07;;;;;;;17.25;12.38;;;9.20;99.90;;;;;;5009041;28;20040;-45
2022/10/05 03:50:44;;;;;;;23.50;11.43;;;9.30;99.90;;;;;;5012147;28;20561;-45
2022/10/05 03:53:19;;;;;;;22.98;10.43;;;9.20;99.90;;;;;;5011538;28;20482;-44
2022/10/05 03:56:02;;;;;;;18.10;9.98;;;9.10;99.90;;;;;;5012192;28;20029;-46
2022/10/05 03:58:37;;;;;;;44.13;11.38;;;9.10;99.90;;;;;;5012068;28;20025;-45
2022/10/05 04:01:10;;;;;;;13.80;10.52;;;9.10;99.90;;;;;;5011907;28;20026;-46
2022/10/05 04:03:45;;;;;;;14.93;10.35;;;9.10;99.90;;;;;;5011683;28;20030;-49
2022/10/05 04:06:29;;;;;;;14.40;10.23;;;9.00;99.90;;;;;;5012075;28;20065;-48
2022/10/05 04:09:03;;;;;;;13.32;10.30;;;9.00;99.90;;;;;;5011856;28;20034;-45
2022/10/05 04:11:40;;;;;;;12.35;10.13;;;9.00;99.90;;;;;;5011580;28;20029;-46
2022/10/05 04:14:20;;;;;;;16.05;11.10;;;9.00;99.90;;;;;;5011590;28;20033;-45
2022/10/05 04:16:52;;;;;;;20.13;10.65;;;9.00;99.90;;;;;;5012486;28;20097;-44
2022/10/05 04:19:30;;;;;;;16.52;9.85;;;9.10;99.90;;;;;;5011760;28;20037;-47
2022/10/05 04:22:11;;;;;;;15.75;10.77;;;9.20;99.90;;;;;;5011539;28;20025;-42
2022/10/05 04:24:48;;;;;;;13.50;11.02;;;9.20;99.90;;;;;;5011790;28;20457;-42
2022/10/05 04:27:21;;;;;;;17.15;11.70;;;9.20;99.90;;;;;;5011453;28;20030;-40
2022/10/05 04:30:15;;;;;;;16.80;12.40;;;9.20;99.90;;;;;;5011750;28;20030;-48
2022/10/05 04:32:45;;;;;;;15.88;11.63;;;9.40;99.90;;;;;;5010851;28;20034;-44
2022/10/05 04:35:22;;;;;;;21.63;12.75;;;9.40;99.90;;;;;;5012223;28;20045;-44
2022/10/05 04:37:56;;;;;;;18.08;13.93;;;9.50;99.90;;;;;;5011639;28;20087;-44
2022/10/05 04:40:34;;;;;;;14.90;12.43;;;9.50;99.90;;;;;;5010543;28;20516;-47
2022/10/05 04:43:27;;;;;;;16.85;11.57;;;9.50;99.90;;;;;;5013928;28;20018;-48
2022/10/05 04:46:01;;;;;;;16.65;11.82;;;9.60;99.90;;;;;;5015294;28;20049;-47
2022/10/05 04:48:48;;;;;;;12.85;11.15;;;9.50;99.90;;;;;;5015288;28;20120;-49
2022/10/05 04:51:14;;;;;;;17.55;11.10;;;9.50;99.90;;;;;;5015463;28;20022;-44
2022/10/05 04:53:53;;;;;;;11.23;9.48;;;9.50;99.90;;;;;;5014720;28;20505;-50
2022/10/05 04:56:37;;;;;;;13.43;9.70;;;9.40;99.90;;;;;;5015122;28;20108;-44
2022/10/05 04:59:25;;;;;;;9.82;8.48;;;9.30;99.90;;;;;;5015193;28;20026;-45
2022/10/05 05:02:09;;;;;;;9.68;8.68;;;9.20;99.90;;;;;;5014964;28;20026;-44
2022/10/05 05:04:52;;;;;;;14.80;8.95;;;9.20;99.90;;;;;;5015737;28;20505;-44
2022/10/05 05:07:42;;;;;;;9.55;8.55;;;9.20;99.90;;;;;;5014943;28;20442;-46
2022/10/05 05:10:38;;;;;;;9.90;8.88;;;9.20;99.90;;;;;;5014957;28;20401;-43
2022/10/05 05:13:19;;;;;;;9.93;8.63;;;9.10;99.90;;;;;;5014203;28;20057;-50
2022/10/05 05:16:02;;;;;;;8.93;8.00;;;9.10;99.90;;;;;;5014808;28;20026;-50
2022/10/05 05:19:09;;;;;;;8.73;7.78;;;9.10;99.90;;;;;;5014572;28;20018;-48
2022/10/05 05:21:59;;;;;;;10.10;8.18;;;9.00;99.90;;;;;;4973306;28;20026;-47
2022/10/05 05:24:30;;;;;;;7.80;7.07;;;9.00;99.90;;;;;;5014786;28;20060;-49
2022/10/05 05:27:14;;;;;;;7.85;6.32;;;9.00;99.90;;;;;;5014634;28;20029;-48
2022/10/05 05:30:06;;;;;;;7.00;6.40;;;8.90;99.90;;;;;;5013937;28;20021;-49
2022/10/05 05:33:03;;;;;;;7.60;6.80;;;8.90;99.90;;;;;;5014141;28;20038;-45
2022/10/05 05:35:38;;;;;;;8.52;6.45;;;8.80;99.90;;;;;;4993464;28;20034;-45
2022/10/05 05:38:17;;;;;;;10.70;7.63;;;8.80;99.90;;;;;;5014362;28;20064;-45
2022/10/05 05:40:45;;;;;;;9.07;7.75;;;8.80;99.90;;;;;;5014398;28;20025;-45
2022/10/05 05:43:24;;;;;;;7.60;6.90;;;8.80;99.90;;;;;;5013974;28;20026;-46
2022/10/05 05:45:59;;;;;;;8.43;7.53;;;8.90;99.90;;;;;;5014295;28;20022;-50
2022/10/05 05:48:45;;;;;;;9.88;7.65;;;9.00;99.90;;;;;;5013902;28;20029;-44
2022/10/05 05:51:14;;;;;;;7.72;6.93;;;9.00;99.90;;;;;;5014169;28;20033;-43
2022/10/05 05:53:45;;;;;;;10.63;7.70;;;9.00;99.90;;;;;;5012389;28;20026;-39
2022/10/05 05:56:26;;;;;;;9.75;7.28;;;9.10;99.90;;;;;;5013902;28;20022;-46
2022/10/05 05:59:10;;;;;;;8.18;7.28;;;9.10;99.90;;;;;;5013736;28;20113;-45
2022/10/05 06:01:44;;;;;;;11.55;8.00;;;9.20;99.90;;;;;;5014461;28;20029;-46
2022/10/05 06:04:20;;;;;;;10.27;8.13;;;9.30;99.90;;;;;;5014285;28;20514;-42
2022/10/05 06:06:50;;;;;;;16.95;8.77;;;9.30;99.90;;;;;;5012630;28;20054;-51
2022/10/05 06:09:36;;;;;;;17.80;13.40;;;9.40;99.90;;;;;;5013396;28;20038;-43
2022/10/05 06:12:06;;;;;;;;;;;9.50;99.90;;;;;;5013713;28;20021;-47
2022/10/05 06:14:39;;;;;;;37.38;13.15;;;9.60;99.90;;;;;;5013513;28;20362;-44
2022/10/05 06:17:10;;;;;;;32.03;14.20;;;9.60;99.90;;;;;;5013917;28;20441;-46
2022/10/05 06:19:37;;;;;;;19.23;12.95;;;9.60;99.90;;;;;;5013456;28;20079;-45
2022/10/05 06:22:18;;;;;;;17.92;13.27;;;9.50;99.90;;;;;;5013362;28;20018;-47
2022/10/05 06:25:11;;;;;;;16.73;12.20;;;9.60;99.90;;;;;;5013738;28;20398;-44
2022/10/05 06:28:14;;;;;;;14.65;12.43;;;9.70;99.90;;;;;;5012761;28;20034;-44
2022/10/05 06:30:58;;;;;;;15.73;12.57;;;9.80;99.90;;;;;;5013410;28;20022;-45
2022/10/05 06:34:05;;;;;;;14.40;12.10;;;9.90;99.90;;;;;;5012917;28;20036;-46
2022/10/05 06:36:31;;;;;;;;;;;10.10;99.90;;;;;;4984440;28;20494;-46
2022/10/05 06:39:19;;;;;;;18.02;12.57;;;10.10;99.90;;;;;;5013360;28;19916;-44
2022/10/05 06:42:27;;;;;;;17.10;11.85;;;10.20;99.90;;;;;;5013250;28;20029;-42
2022/10/05 06:45:08;;;;;;;13.77;12.18;;;10.20;99.90;;;;;;5013366;28;20018;-46
2022/10/05 06:47:55;;;;;;;14.68;12.77;;;10.30;99.90;;;;;;5013296;28;20026;-44
2022/10/05 06:50:41;;;;;;;15.45;13.25;;;10.40;99.90;;;;;;5013715;28;20111;-47
2022/10/05 06:53:43;;;;;;;18.08;14.73;;;10.40;99.90;;;;;;5014142;28;20030;-44
2022/10/05 06:56:30;;;;;;;18.20;14.05;;;10.50;99.90;;;;;;5019024;28;20026;-44
2022/10/05 06:59:17;;;;;;;21.00;15.48;;;10.50;99.90;;;;;;5025125;28;20029;-44
2022/10/05 07:01:54;;;;;;;27.13;16.75;;;10.60;99.90;;;;;;5021412;28;20022;-47
2022/10/05 07:04:46;;;;;;;26.95;16.92;;;10.60;99.90;;;;;;5019457;28;20029;-45
2022/10/05 07:07:55;;;;;;;22.67;15.95;;;10.70;99.90;;;;;;5016851;28;20060;-49
2022/10/05 07:10:40;;;;;;;23.27;15.90;;;10.70;99.90;;;;;;5013101;28;20032;-44
2022/10/05 07:14:01;;;;;;;28.07;18.03;;;10.80;99.90;;;;;;5012350;28;20088;-46
2022/10/05 07:16:39;;;;;;;27.40;18.08;;;10.90;99.90;;;;;;5013253;28;20022;-41
2022/10/05 07:19:26;;;;;;;27.90;18.23;;;10.90;99.90;;;;;;5012489;28;20030;-44
2022/10/05 07:22:23;;;;;;;36.75;21.13;;;11.00;99.90;;;;;;5011288;28;20549;-44
2022/10/05 07:24:59;;;;;;;27.17;19.40;;;11.20;99.90;;;;;;5012503;28;20398;-46
2022/10/05 07:27:31;;;;;;;30.15;19.77;;;11.20;99.90;;;;;;5012018;28;20030;-45
2022/10/05 07:30:12;;;;;;;30.42;20.85;;;11.30;99.90;;;;;;5012212;28;20101;-49
2022/10/05 07:33:09;;;;;;;34.03;21.85;;;11.30;99.90;;;;;;5012298;28;20038;-44
2022/10/05 07:38:50;;;;;;;31.83;20.60;;;11.40;99.90;;;;;;5012574;28;20079;-45
2022/10/05 07:41:28;;;;;;;31.70;20.58;;;11.40;99.90;;;;;;5012376;28;20096;-44
2022/10/05 07:44:05;;;;;;;24.63;19.15;;;11.40;99.90;;;;;;5012443;28;20022;-46
2022/10/05 07:46:39;;;;;;;25.77;18.00;;;11.50;99.90;;;;;;5012326;28;20032;-46
2022/10/05 07:49:16;;;;;;;28.48;20.48;;;11.50;99.90;;;;;;5012808;28;20064;-44
2022/10/05 07:51:49;;;;;;;28.20;19.95;;;11.60;99.90;;;;;;5012497;28;20092;-42
2022/10/05 07:55:00;;;;;;;30.77;20.88;;;11.70;99.90;;;;;;5012104;28;20029;-47
2022/10/05 07:57:43;;;;;;;28.50;20.80;;;11.80;99.90;;;;;;5012186;28;20022;-47
2022/10/05 08:00:19;;;;;;;32.85;22.52;;;11.80;99.90;;;;;;5011013;28;20547;-44
2022/10/05 08:03:05;;;;;;;40.25;23.48;;;11.90;99.90;;;;;;5011788;28;20026;-40
2022/10/05 08:05:34;;;;;;;36.05;22.30;;;11.90;99.90;;;;;;5012206;28;20026;-45
2022/10/05 08:08:09;;;;;;;32.03;21.27;;;11.90;99.90;;;;;;5011854;28;20030;-47
2022/10/05 08:11:08;;;;;;;34.30;21.43;;;12.00;99.90;;;;;;5011926;28;20164;-44
2022/10/05 08:13:47;;;;;;;31.95;21.27;;;12.00;99.90;;;;;;5011648;28;20429;-45
2022/10/05 08:16:15;;;;;;;31.95;22.33;;;11.90;99.90;;;;;;5011980;28;20022;-46
2022/10/05 08:18:58;;;;;;;33.85;22.63;;;12.10;99.90;;;;;;5014619;28;20100;-50
2022/10/05 08:21:44;;;;;;;34.63;21.95;;;11.90;99.90;;;;;;5015813;28;20152;-46
2022/10/05 08:24:39;;;;;;;39.50;23.42;;;11.90;99.90;;;;;;5015520;28;20041;-44
2022/10/05 08:27:09;;;;;;;38.78;23.10;;;12.00;99.90;;;;;;5015845;28;20026;-46
2022/10/05 08:30:07;;;;;;;39.05;23.48;;;12.10;99.90;;;;;;5014990;28;20095;-46
2022/10/05 08:32:59;;;;;;;33.00;21.98;;;12.20;99.90;;;;;;5027074;22;20050;-45
2022/10/05 08:35:43;;;;;;;36.50;23.63;;;12.30;99.90;;;;;;5014171;28;20033;-45
2022/10/05 08:38:18;;;;;;;32.55;22.13;;;12.30;99.90;;;;;;5015282;28;20018;-45
2022/10/05 08:41:21;;;;;;;39.22;23.23;;;12.40;99.90;;;;;;5013900;28;20018;-47
2022/10/05 08:44:06;;;;;;;33.40;22.73;;;12.40;99.90;;;;;;5014797;28;20448;-43
2022/10/05 08:46:55;;;;;;;34.25;22.80;;;12.40;99.90;;;;;;5015164;28;20054;-46
2022/10/05 08:50:03;;;;;;;36.72;23.45;;;12.40;99.90;;;;;;5015136;28;20029;-45
2022/10/05 08:53:06;;;;;;;37.50;24.65;;;12.60;99.90;;;;;;5014956;28;20513;-49
2022/10/05 08:56:00;;;;;;;35.05;22.52;;;12.80;99.90;;;;;;5014977;28;20033;-43
2022/10/05 08:59:03;;;;;;;30.27;21.45;;;13.10;99.90;;;;;;5014988;28;20030;-45
2022/10/05 09:01:45;;;;;;;28.27;20.33;;;13.60;99.90;;;;;;5015104;28;20033;-44
2022/10/05 09:04:40;;;;;;;26.63;19.55;;;14.20;99.90;;;;;;5014828;28;20026;-49
2022/10/05 09:07:25;;;;;;;25.50;17.38;;;15.10;99.90;;;;;;5015327;28;20026;-51
2022/10/05 09:09:58;;;;;;;;;;;15.50;99.90;;;;;;5013781;28;20592;-45
2022/10/05 09:12:38;;;;;;;27.70;18.95;;;16.10;99.90;;;;;;5014337;28;19912;-47
2022/10/05 09:15:13;;;;;;;26.33;19.52;;;16.30;99.90;;;;;;5014798;28;20100;-46
2022/10/05 09:17:41;;;;;;;28.55;20.58;;;16.30;99.90;;;;;;5014435;28;20042;-46
2022/10/05 09:20:27;;;;;;;27.38;19.23;;;16.30;99.90;;;;;;5014284;28;20113;-44
2022/10/05 09:23:14;;;;;;;22.35;16.88;;;16.70;99.90;;;;;;5014112;28;20033;-47
2022/10/05 09:25:58;;;;;;;26.48;16.75;;;17.60;99.90;;;;;;5014409;28;20033;-46
2022/10/05 09:28:33;;;;;;;20.65;13.82;;;18.60;99.90;;;;;;5013302;28;20088;-45
2022/10/05 09:31:08;;;;;;;21.20;13.70;;;19.40;99.90;;;;;;5014332;28;20052;-44
2022/10/05 09:33:52;;;;;;;17.75;12.77;;;19.70;99.90;;;;;;5013496;28;20073;-45
2022/10/05 09:36:29;;;;;;;19.15;13.40;;;19.90;99.90;;;;;;5014019;28;20018;-46
2022/10/05 09:39:17;;;;;;;18.42;12.63;;;19.70;99.90;;;;;;5013961;28;20450;-45
2022/10/05 09:41:58;;;;;;;15.90;12.93;;;19.40;99.90;;;;;;5014581;28;20032;-49
2022/10/05 09:44:51;;;;;;;17.13;13.85;;;19.10;99.90;;;;;;5014494;28;20030;-46
2022/10/05 09:47:44;;;;;;;15.30;13.50;;;18.80;99.90;;;;;;5014036;28;20509;-43
2022/10/05 09:50:19;;;;;;;15.80;12.77;;;18.50;99.90;;;;;;5014328;28;20036;-46
2022/10/05 09:53:08;;;;;;;18.48;13.52;;;18.40;99.90;;;;;;5013644;28;20029;-44
2022/10/05 09:55:43;;;;;;;14.05;12.40;;;18.50;99.90;;;;;;5014574;28;20493;-46
2022/10/05 09:58:30;;;;;;;15.55;11.88;;;18.40;99.90;;;;;;5015364;28;20069;-44
2022/10/05 10:01:19;;;;;;;11.80;10.55;;;18.50;99.90;;;;;;5014269;28;20026;-49
2022/10/05 10:04:08;;;;;;;12.98;10.25;;;18.60;99.90;;;;;;5013499;28;20022;-47
2022/10/05 10:06:55;;;;;;;13.73;10.43;;;18.70;99.90;;;;;;5013663;28;20552;-51
2022/10/05 10:09:56;;;;;;;11.98;10.77;;;18.50;99.90;;;;;;5013590;28;20121;-48
2022/10/05 10:12:57;;;;;;;11.05;9.80;;;18.30;99.90;;;;;;5010367;28;20401;-46
2022/10/05 10:15:31;;;;;;;12.10;10.77;;;18.40;99.90;;;;;;4972020;28;20088;-46
2022/10/05 10:18:08;;;;;;;11.60;10.38;;;18.50;99.90;;;;;;5007384;28;20034;-49
2022/10/05 10:21:12;;;;;;;12.98;9.88;;;18.60;99.90;;;;;;5013311;28;20071;-46
2022/10/05 10:23:59;;;;;;;12.65;11.27;;;18.70;99.90;;;;;;5012818;28;20022;-45
2022/10/05 10:26:36;;;;;;;12.90;10.27;;;18.70;99.90;;;;;;5013235;28;20038;-46
2022/10/05 10:29:36;;;;;;;12.63;10.35;;;18.70;99.90;;;;;;5011755;28;20076;-45
2022/10/05 10:32:04;;;;;;;11.93;10.50;;;18.60;99.90;;;;;;5012497;28;20022;-44
2022/10/05 10:34:58;;;;;;;12.10;9.55;;;18.40;99.90;;;;;;5013281;28;20021;-46
2022/10/05 10:37:51;;;;;;;9.00;8.10;;;18.40;99.90;;;;;;5012978;28;20125;-49
2022/10/05 10:40:37;;;;;;;9.52;8.52;;;18.30;99.90;;;;;;5012212;28;20424;-47
2022/10/05 10:43:33;;;;;;;12.90;9.40;;;18.40;99.90;;;;;;5012895;28;20034;-46
2022/10/05 10:46:26;;;;;;;9.23;8.32;;;18.50;99.90;;;;;;5013032;28;20037;-46
2022/10/05 10:48:56;;;;;;;10.38;7.80;;;18.50;99.90;;;;;;5012979;28;20033;-46
2022/10/05 10:51:43;;;;;;;7.53;6.80;;;18.60;99.90;;;;;;5013132;28;20029;-45
2022/10/05 10:54:18;;;;;;;8.70;6.38;;;18.50;99.90;;;;;;5012670;28;20379;-46
2022/10/05 10:57:08;;;;;;;6.47;5.82;;;18.30;99.90;;;;;;5012781;28;20513;-45
2022/10/05 10:59:56;;;;;;;7.05;6.32;;;18.20;99.90;;;;;;5012783;28;20021;-45
2022/10/05 11:02:52;;;;;;;10.07;9.07;;;18.10;99.90;;;;;;5012354;28;20030;-47
2022/10/05 11:05:45;;;;;;;9.55;7.55;;;18.00;99.90;;;;;;5012494;28;20430;-45
2022/10/05 11:08:19;;;;;;;6.53;5.93;;;17.90;99.90;;;;;;5012817;28;20022;-46
2022/10/05 11:11:22;;;;;;;7.88;5.50;;;18.00;99.90;;;;;;5013155;28;20064;-45
2022/10/05 11:14:01;;;;;;;7.20;5.00;;;18.00;99.90;;;;;;5012407;28;20028;-47
2022/10/05 11:16:59;;;;;;;5.80;5.30;;;18.00;99.90;;;;;;5012725;28;20401;-45
2022/10/05 11:19:53;;;;;;;6.63;5.05;;;18.00;99.90;;;;;;5012646;28;20052;-45
2022/10/05 11:22:55;;;;;;;4.80;4.40;;;18.10;99.90;;;;;;5012063;28;20026;-44
2022/10/05 11:25:47;;;;;;;5.00;4.38;;;18.10;99.90;;;;;;5012322;28;20029;-46
2022/10/05 11:28:29;;;;;;;6.35;4.50;;;18.20;99.90;;;;;;5011871;28;20045;-45
2022/10/05 11:31:09;;;;;;;5.65;4.53;;;18.20;99.90;;;;;;5012105;28;20125;-51
2022/10/05 11:34:05;;;;;;;9.45;4.22;;;18.20;99.90;;;;;;5011383;28;20030;-47
2022/10/05 11:36:52;;;;;;;5.22;4.40;;;18.20;99.90;;;;;;5012137;28;20020;-48
2022/10/05 11:39:32;;;;;;;6.30;4.72;;;18.10;99.90;;;;;;5011649;28;20026;-45
2022/10/05 11:42:29;;;;;;;10.88;4.82;;;18.00;99.90;;;;;;5011799;28;20034;-47
2022/10/05 11:45:35;;;;;;;6.57;4.30;;;17.90;99.90;;;;;;5011996;28;20022;-46
2022/10/05 11:48:22;;;;;;;4.93;3.80;;;17.90;99.90;;;;;;4981083;28;20034;-49
2022/10/05 11:51:07;;;;;;;4.60;3.75;;;18.00;99.90;;;;;;5010404;28;20025;-50
2022/10/05 11:54:08;;;;;;;8.70;4.00;;;17.90;99.90;;;;;;5011169;28;20449;-46
2022/10/05 11:56:45;;;;;;;3.50;3.22;;;18.00;99.90;;;;;;4985036;28;20168;-47
2022/10/05 11:59:19;;;;;;;9.05;4.00;;;18.10;99.90;;;;;;5011491;28;20026;-45
2022/10/05 12:01:54;;;;;;;6.87;4.27;;;18.10;99.90;;;;;;5011772;28;20025;-50
2022/10/05 12:04:53;;;;;;;7.10;4.10;;;18.20;99.90;;;;;;5012050;28;20029;-49
2022/10/05 12:07:37;;;;;;;6.50;4.07;;;18.40;99.90;;;;;;5011733;28;20524;-44
2022/10/05 12:10:13;;;;;;;4.00;3.70;;;18.40;99.90;;;;;;5012024;28;20026;-45
2022/10/05 12:13:02;;;;;;;6.95;4.13;;;18.50;99.90;;;;;;5011403;28;20030;-45
2022/10/05 12:15:56;;;;;;;4.90;4.40;;;18.60;99.90;;;;;;5001836;28;20057;-50
2022/10/05 12:18:29;;;;;;;4.53;3.65;;;18.70;99.90;;;;;;5011818;28;20025;-43
2022/10/05 12:21:00;;;;;;;8.98;6.93;;;18.80;99.90;;;;;;5011845;28;20029;-45
2022/10/05 12:23:55;;;;;;;7.25;5.72;;;18.70;99.90;;;;;;5011678;28;20026;-47
2022/10/05 12:26:26;;;;;;;10.45;5.45;;;18.80;99.90;;;;;;5004734;28;20125;-45
2022/10/05 12:29:16;;;;;;;7.28;4.85;;;18.80;99.90;;;;;;5011057;28;20469;-48
2022/10/05 12:32:05;;;;;;;5.05;4.53;;;18.80;99.90;;;;;;5011670;28;20026;-45
2022/10/05 12:34:34;;;;;;;10.70;5.28;;;18.70;99.90;;;;;;5011863;28;20037;-44
2022/10/05 12:37:33;;;;;;;7.25;5.50;;;18.70;99.90;;;;;;5011546;28;20105;-49
2022/10/05 12:40:24;;;;;;;5.32;4.82;;;18.70;99.90;;;;;;5011553;28;20049;-47
2022/10/05 12:43:03;;;;;;;5.55;4.78;;;18.70;99.90;;;;;;5011234;28;20371;-44
2022/10/05 12:46:02;;;;;;;6.30;4.97;;;18.80;99.90;;;;;;5011418;28;20105;-48
2022/10/05 12:48:48;;;;;;;7.88;5.85;;;18.80;99.90;;;;;;4980959;28;20161;-48
2022/10/05 12:51:26;;;;;;;13.88;11.05;;;18.70;99.90;;;;;;5011839;28;20025;-45
2022/10/05 12:54:17;;;;;;;17.75;10.60;;;18.80;99.90;;;;;;5011057;28;20045;-43
2022/10/05 12:56:58;;;;;;;7.88;5.18;;;18.90;99.90;;;;;;5011363;28;20080;-47
2022/10/05 12:59:39;;;;;;;5.68;5.18;;;19.00;99.90;;;;;;5011280;28;20033;-45
2022/10/05 13:02:22;;;;;;;6.63;4.43;;;19.00;99.90;;;;;;5010886;28;20030;-49
2022/10/05 13:05:08;;;;;;;6.70;4.90;;;19.10;99.90;;;;;;5015058;28;20018;-48
2022/10/05 13:07:37;;;;;;;7.45;4.85;;;19.20;99.90;;;;;;5014983;28;20032;-42
2022/10/05 13:10:12;;;;;;;5.07;4.57;;;19.30;99.90;;;;;;5014734;28;20030;-46
2022/10/05 13:13:09;;;;;;;7.28;4.13;;;19.20;99.90;;;;;;5014638;28;20022;-42
2022/10/05 13:16:00;;;;;;;7.47;4.55;;;19.20;99.90;;;;;;5014824;28;20452;-45
2022/10/05 13:18:38;;;;;;;5.88;5.00;;;19.20;99.90;;;;;;5014675;28;20029;-44
2022/10/05 13:21:29;;;;;;;8.05;5.03;;;19.30;99.90;;;;;;5014673;28;20094;-43
2022/10/05 13:24:06;;;;;;;6.82;5.15;;;19.30;99.90;;;;;;5014810;28;20033;-45
2022/10/05 13:26:36;;;;;;;9.98;5.03;;;19.40;99.90;;;;;;5014751;28;20032;-48
2022/10/05 13:29:38;;;;;;;7.65;4.90;;;19.40;99.90;;;;;;5014434;28;20030;-45
2022/10/05 13:32:35;;;;;;;6.60;4.35;;;19.40;99.90;;;;;;5010196;28;20038;-46
2022/10/05 13:35:04;;;;;;;6.40;4.03;;;19.50;99.90;;;;;;5014552;28;20045;-48
2022/10/05 13:37:49;;;;;;;5.38;4.40;;;19.60;99.90;;;;;;5014605;28;20044;-44
2022/10/05 13:40:32;;;;;;;9.90;4.53;;;19.60;99.90;;;;;;5014228;28;20018;-44
2022/10/05 13:43:10;;;;;;;5.82;3.88;;;19.60;99.90;;;;;;5013920;28;20095;-49
2022/10/05 13:45:46;;;;;;;6.38;4.57;;;19.60;99.90;;;;;;5014251;28;20088;-45
2022/10/05 13:48:45;;;;;;;5.00;4.07;;;19.70;99.90;;;;;;5014210;28;20486;-48
2022/10/05 13:51:16;;;;;;;6.75;4.25;;;19.60;99.90;;;;;;5014267;28;20040;-44
2022/10/05 13:53:54;;;;;;;5.20;4.20;;;19.70;99.90;;;;;;5013625;28;20093;-46
2022/10/05 13:56:44;;;;;;;5.32;3.78;;;19.70;99.90;;;;;;5013913;28;20517;-48
2022/10/05 13:59:52;;;;;;;4.43;4.03;;;19.80;99.90;;;;;;5013861;28;20354;-49
2022/10/05 14:02:28;;;;;;;4.45;4.13;;;19.80;99.90;;;;;;4933443;29;20070;-51
2022/10/05 14:05:12;;;;;;;5.47;3.83;;;19.90;99.90;;;;;;5006707;28;20427;-42